Black Mesa, Arizona
Current Conditions -  °F | °C
As of 8:53 PM on Friday 19 Dec 2014 (Local Time) from KPGA Reporting Station
Haze Haze  
Wind Chill:   Ceiling: Unl
Heat Index:   Visibility: 5mi
Dew Point: -1°   Wind: 6mph
Humidity: 73%   Direction: 210°SSW
Pressure: 30.21"   Gusts: NA
Location:  36.6859°N, 110.268°W
Report Text: KPGA 200353Z AUTO 21005KT 5SM HZ CLR 03/M01 A3021 RMK AO2 SLP230 T00331011 TSNO
Loading
Personal Weather Stations






























Interactive Weather Map New forecast layout! Learn more

10-Day Weather Forecast

Advertisements
Track Severe Weather on mobile